map of KSIF home
Great Circle Mapper logo
KSIF - Airport
Location
City:  Reidsville, North Carolina, United States
Name:Rockingham County NC Shiloh Airport
ICAO:KSIF
FAA:SIF

Details
Type:Airport (Airfield)
Use:Public/Civil
Latitude:3626'14"N (36.437222)
Longitude:7951'04"W (-79.851010)
Datum:WGS 1984
Elevation:694 ft (212 m)
Runways:1
Longest:5199 × 100 ft (1585 × 30.5 m), paved

Time
Time Zone:UTC-5 (DST-4)
Local Time:

Weather
METAR:KSIF 221415Z AUTO 34006KT 10SM CLR 14/05 A3005 RMK AO2 T01360052

Related Locations
Nearby:
Farthest:MGV: 11580 mi / 18637 km
Margaret River, WA, AU

Find:

   beyond  
but within

Other Information
Maps:
NOTAMs:
Links:
Sources:

  
flag of United States
flag of North Carolina
  

Sectional Chart

Flight Planning
at skyvector.com

Satellite Image

Google Maps Satellite View

 

Copyright © 2004-2014 Karl L. Swartz. All rights reserved.
The Great Circle Mapper name and logo are trademarks of the Great Circle Mapper.
All other trademarks mentioned herein belong to their respective owners.
Please see credits for attibutions and further copyright information.

  Follow gcmap on Facebook Follow gcmap on Twitter

hCard Microformat

Geo Microformat